createdAt,value
2022-10-05T00:13:35.660Z,14.31
2022-10-05T00:33:35.704Z,14.25
2022-10-05T00:53:35.654Z,14.50
2022-10-05T01:13:35.613Z,14.31
2022-10-05T01:33:35.629Z,14.50
2022-10-05T01:53:35.548Z,14.18
2022-10-05T02:13:35.566Z,14.43
2022-10-05T02:33:35.664Z,14.37
2022-10-05T02:53:35.657Z,14.25
2022-10-05T03:13:35.521Z,14.25
2022-10-05T03:33:35.548Z,14.37
2022-10-05T03:53:35.564Z,14.31
2022-10-05T04:13:35.581Z,14.25
2022-10-05T04:33:35.501Z,14.18
2022-10-05T04:53:35.518Z,14.06
2022-10-05T05:13:35.535Z,14.31
2022-10-05T05:33:35.553Z,14.18
2022-10-05T05:53:35.506Z,14.00
2022-10-05T06:13:35.486Z,14.06
2022-10-05T06:33:35.555Z,13.93
2022-10-05T06:53:35.541Z,14.12
2022-10-05T07:13:35.441Z,14.00
2022-10-05T07:33:35.476Z,14.00
2022-10-05T07:53:35.514Z,13.81
2022-10-05T08:13:35.417Z,14.12
2022-10-05T08:33:35.469Z,14.37
2022-10-05T08:53:35.448Z,14.43
2022-10-05T09:13:35.404Z,14.56
2022-10-05T09:33:35.389Z,14.56
2022-10-05T09:53:35.321Z,14.81
2022-10-05T10:13:35.352Z,14.37
2022-10-05T10:33:35.375Z,14.37
2022-10-05T10:53:35.279Z,14.31
2022-10-05T11:13:35.334Z,14.50
2022-10-05T11:33:35.295Z,14.68
2022-10-05T11:53:35.354Z,14.87
2022-10-05T12:13:35.178Z,15.00
2022-10-05T12:33:35.246Z,14.81
2022-10-05T12:53:35.188Z,14.93
2022-10-05T13:13:35.086Z,14.87
2022-10-05T13:33:35.125Z,14.93
2022-10-05T13:53:35.046Z,15.00
2022-10-05T14:13:35.081Z,15.06
2022-10-05T14:33:35.022Z,15.18
2022-10-05T14:53:34.923Z,15.12
2022-10-05T15:13:35.003Z,15.31
2022-10-05T15:33:34.891Z,15.37
2022-10-05T15:53:34.910Z,15.37
2022-10-05T16:13:34.878Z,15.50
2022-10-05T16:33:34.866Z,15.31
2022-10-05T16:53:34.872Z,15.25
2022-10-05T17:13:34.823Z,15.31
2022-10-05T17:33:34.783Z,15.43
2022-10-05T17:53:34.769Z,15.37
2022-10-05T18:13:34.696Z,15.37
2022-10-05T18:33:34.714Z,15.18
2022-10-05T18:53:34.655Z,15.43
2022-10-05T19:13:34.660Z,15.43
2022-10-05T19:33:34.684Z,15.37
2022-10-05T19:53:34.606Z,15.25
2022-10-05T20:13:34.630Z,15.18
2022-10-05T20:33:34.611Z,15.18
2022-10-05T20:53:34.571Z,15.12
2022-10-05T21:13:34.594Z,15.06
2022-10-05T21:33:34.518Z,15.00
2022-10-05T21:53:34.584Z,15.12
2022-10-05T22:13:34.461Z,14.93
2022-10-05T22:33:34.480Z,15.12
2022-10-05T22:53:34.503Z,14.93
2022-10-05T23:13:34.426Z,14.93
2022-10-05T23:33:34.488Z,15.06
2022-10-05T23:53:34.378Z,15.06
